Terminal Aerodrome Forecast
Issued by NWS

Home | Current Version | Previous Version | Text Only | Print | Product List | Glossary On
Versions: 1 2 3 4 5 6 7 8 9 10 11 12
000
FTUS45 KRIW 021720
TAFBPI
TAF
KBPI 021720Z 0218/0318 35007KT P6SM SCT250
     FM022000 34013G20KT P6SM SCT090
     FM030700 VRB05KT P6SM SKC=

USA.gov is the U.S. government's official web portal to all federal, state and local government web resources and services.